createdAt,value
2022-10-05T00:01:57.164Z,1.20
2022-10-05T00:04:30.641Z,1.55
2022-10-05T00:07:10.734Z,1.13
2022-10-05T00:09:44.320Z,1.30
2022-10-05T00:12:20.326Z,1.17
2022-10-05T00:14:57.812Z,1.45
2022-10-05T00:17:32.052Z,1.85
2022-10-05T00:20:17.941Z,1.23
2022-10-05T00:22:56.732Z,1.20
2022-10-05T00:25:30.025Z,1.30
2022-10-05T00:28:02.982Z,1.52
2022-10-05T00:33:10.477Z,1.52
2022-10-05T00:35:43.383Z,1.10
2022-10-05T00:41:01.916Z,0.90
2022-10-05T00:44:03.942Z,1.10
2022-10-05T00:46:48.036Z,1.80
2022-10-05T00:49:37.448Z,1.10
2022-10-05T00:52:23.531Z,1.23
2022-10-05T00:55:04.098Z,1.20
2022-10-05T00:57:47.412Z,1.00
2022-10-05T01:00:25.709Z,1.23
2022-10-05T01:03:04.717Z,1.35
2022-10-05T01:05:55.077Z,1.38
2022-10-05T01:08:38.789Z,1.30
2022-10-05T01:11:18.725Z,1.02
2022-10-05T01:14:00.640Z,1.05
2022-10-05T01:16:42.815Z,1.00
2022-10-05T01:19:35.533Z,1.20
2022-10-05T01:22:21.152Z,1.07
2022-10-05T01:25:06.967Z,0.73
2022-10-05T01:28:01.183Z,1.17
2022-10-05T01:30:40.896Z,1.38
2022-10-05T01:33:21.741Z,1.05
2022-10-05T01:36:04.664Z,1.50
2022-10-05T01:38:47.070Z,1.52
2022-10-05T01:41:33.609Z,1.20
2022-10-05T01:44:14.066Z,1.13
2022-10-05T01:46:55.974Z,1.45
2022-10-05T01:49:38.753Z,1.25
2022-10-05T01:52:28.854Z,1.20
2022-10-05T01:55:14.084Z,1.20
2022-10-05T01:58:00.099Z,1.55
2022-10-05T02:00:43.575Z,1.85
2022-10-05T02:03:20.870Z,1.40
2022-10-05T02:05:59.052Z,1.52
2022-10-05T02:08:37.568Z,1.48
2022-10-05T02:11:14.590Z,2.22
2022-10-05T02:13:54.261Z,1.90
2022-10-05T02:16:34.408Z,1.23
2022-10-05T02:19:14.961Z,1.70
2022-10-05T02:21:54.725Z,1.67
2022-10-05T02:24:33.309Z,1.50
2022-10-05T02:27:07.821Z,1.77
2022-10-05T02:29:46.669Z,2.00
2022-10-05T02:32:26.070Z,1.83
2022-10-05T02:35:02.814Z,1.80
2022-10-05T02:37:50.394Z,1.92
2022-10-05T02:40:37.199Z,2.00
2022-10-05T02:43:20.761Z,1.75
2022-10-05T02:46:02.695Z,2.10
2022-10-05T02:48:47.596Z,1.80
2022-10-05T02:51:24.074Z,1.60
2022-10-05T02:54:07.735Z,1.67
2022-10-05T02:56:48.147Z,1.55
2022-10-05T02:59:28.047Z,2.05
2022-10-05T03:02:13.199Z,1.88
2022-10-05T03:05:00.380Z,1.70
2022-10-05T03:07:38.216Z,2.40
2022-10-05T03:10:15.764Z,1.75
2022-10-05T03:12:56.892Z,1.88
2022-10-05T03:15:51.066Z,1.45
2022-10-05T03:18:36.569Z,1.70
2022-10-05T03:21:21.237Z,1.67
2022-10-05T03:24:07.935Z,1.73
2022-10-05T03:26:54.077Z,1.92
2022-10-05T03:29:36.637Z,1.95
2022-10-05T03:34:52.407Z,1.75
2022-10-05T03:37:40.526Z,2.38
2022-10-05T03:40:26.102Z,1.92
2022-10-05T03:43:28.762Z,1.98
2022-10-05T03:46:09.702Z,2.38
2022-10-05T03:48:52.777Z,2.08
2022-10-05T03:51:32.602Z,2.50
2022-10-05T03:54:21.730Z,2.00
2022-10-05T03:56:58.011Z,1.70
2022-10-05T03:59:39.096Z,2.00
2022-10-05T04:02:21.023Z,1.90
2022-10-05T04:04:57.265Z,2.63
2022-10-05T04:07:42.719Z,1.80
2022-10-05T04:10:25.406Z,1.77
2022-10-05T04:13:04.478Z,1.90
2022-10-05T04:15:41.588Z,2.00
2022-10-05T04:18:25.759Z,2.28
2022-10-05T04:21:03.749Z,2.13
2022-10-05T04:23:46.532Z,2.17
2022-10-05T04:26:31.725Z,1.85
2022-10-05T04:29:13.189Z,1.52
2022-10-05T04:32:02.198Z,1.85
2022-10-05T04:34:47.884Z,1.75
2022-10-05T04:37:26.562Z,1.50
2022-10-05T04:40:19.440Z,1.83
2022-10-05T04:43:05.832Z,1.38
2022-10-05T04:45:53.565Z,1.40
2022-10-05T04:48:47.035Z,1.50
2022-10-05T04:51:35.469Z,1.38
2022-10-05T04:54:23.969Z,2.00
2022-10-05T04:57:01.580Z,1.25
2022-10-05T05:00:05.576Z,1.60
2022-10-05T05:05:44.561Z,1.17
2022-10-05T05:08:41.049Z,1.02
2022-10-05T05:11:28.812Z,1.40
2022-10-05T05:14:22.510Z,1.00
2022-10-05T05:19:46.366Z,1.20
2022-10-05T05:25:19.539Z,0.90
2022-10-05T05:27:55.900Z,1.10
2022-10-05T05:30:44.212Z,0.80
2022-10-05T05:33:27.357Z,1.00
2022-10-05T05:36:32.058Z,0.98
2022-10-05T05:39:24.706Z,0.82
2022-10-05T05:42:02.523Z,1.00
2022-10-05T05:44:44.151Z,0.93
2022-10-05T05:47:22.006Z,0.90
2022-10-05T05:50:12.577Z,0.90
2022-10-05T05:52:50.637Z,1.25
2022-10-05T05:55:30.055Z,1.00
2022-10-05T05:58:14.751Z,1.08
2022-10-05T06:00:53.241Z,0.90
2022-10-05T06:03:34.270Z,1.05
2022-10-05T06:06:11.850Z,1.13
2022-10-05T06:08:48.544Z,0.77
2022-10-05T06:11:33.065Z,0.80
2022-10-05T06:14:13.473Z,0.93
2022-10-05T06:16:51.483Z,1.00
2022-10-05T06:19:27.440Z,1.10
2022-10-05T06:22:08.361Z,1.27
2022-10-05T06:24:52.059Z,0.90
2022-10-05T06:27:27.460Z,1.08
2022-10-05T06:30:11.062Z,1.30
2022-10-05T06:33:04.139Z,1.33
2022-10-05T06:35:49.462Z,1.50
2022-10-05T06:38:44.537Z,1.35
2022-10-05T06:41:28.937Z,1.30
2022-10-05T06:44:10.149Z,1.00
2022-10-05T06:47:07.797Z,1.67
2022-10-05T06:50:14.352Z,1.40
2022-10-05T06:53:34.983Z,1.23
2022-10-05T06:56:12.583Z,1.30
2022-10-05T06:58:55.776Z,1.17
2022-10-05T07:01:42.171Z,1.38
2022-10-05T07:04:46.265Z,1.02
2022-10-05T07:07:26.879Z,1.45
2022-10-05T07:10:16.517Z,1.05
2022-10-05T07:13:07.756Z,1.35
2022-10-05T07:15:45.786Z,1.67
2022-10-05T07:18:35.659Z,1.40
2022-10-05T07:21:17.781Z,1.50
2022-10-05T07:24:01.218Z,1.27
2022-10-05T07:29:25.816Z,1.42
2022-10-05T07:32:08.556Z,1.50
2022-10-05T07:34:52.048Z,1.73
2022-10-05T07:37:51.181Z,1.30
2022-10-05T07:40:30.515Z,1.30
2022-10-05T07:43:15.232Z,1.40
2022-10-05T07:45:54.808Z,1.98
2022-10-05T07:48:35.447Z,2.08
2022-10-05T07:51:17.262Z,1.60
2022-10-05T07:53:59.738Z,1.50
2022-10-05T07:56:39.228Z,1.60
2022-10-05T07:59:21.038Z,1.60
2022-10-05T08:02:03.835Z,1.58
2022-10-05T08:04:48.020Z,1.73
2022-10-05T08:07:21.205Z,1.80
2022-10-05T08:10:01.028Z,1.77
2022-10-05T08:12:45.292Z,1.30
2022-10-05T08:15:23.422Z,1.52
2022-10-05T08:18:00.810Z,1.60
2022-10-05T08:20:41.268Z,1.80
2022-10-05T08:23:23.593Z,2.03
2022-10-05T08:26:07.450Z,1.70
2022-10-05T08:28:47.084Z,1.60
2022-10-05T08:31:25.217Z,1.90
2022-10-05T08:34:07.217Z,1.85
2022-10-05T08:36:54.109Z,1.73
2022-10-05T08:39:31.671Z,1.40
2022-10-05T08:42:52.292Z,1.70
2022-10-05T08:45:56.818Z,1.77
2022-10-05T08:48:49.433Z,1.30
2022-10-05T08:51:55.292Z,1.90
2022-10-05T08:55:05.772Z,1.50
2022-10-05T08:57:55.722Z,1.50
2022-10-05T09:00:40.300Z,1.92
2022-10-05T09:03:49.100Z,1.92
2022-10-05T09:06:59.916Z,1.30
2022-10-05T09:10:01.491Z,1.73
2022-10-05T09:12:57.021Z,1.60
2022-10-05T09:15:58.082Z,1.70
2022-10-05T09:19:02.529Z,1.58
2022-10-05T09:21:43.776Z,1.42
2022-10-05T09:24:28.861Z,1.30
2022-10-05T09:27:10.998Z,1.90
2022-10-05T09:30:07.002Z,1.50
2022-10-05T09:33:13.520Z,1.15
2022-10-05T09:36:13.452Z,1.40
2022-10-05T09:39:20.185Z,1.65
2022-10-05T09:42:37.660Z,1.45
2022-10-05T09:45:37.655Z,1.30
2022-10-05T09:48:47.722Z,2.10
2022-10-05T09:51:44.490Z,1.20
2022-10-05T09:54:43.631Z,1.38
2022-10-05T09:57:40.411Z,1.30
2022-10-05T10:00:35.974Z,1.48
2022-10-05T10:03:52.440Z,1.20
2022-10-05T10:06:43.218Z,1.15
2022-10-05T10:09:25.210Z,1.10
2022-10-05T10:12:19.132Z,1.35
2022-10-05T10:15:15.808Z,1.20
2022-10-05T10:18:05.640Z,1.25
2022-10-05T10:20:57.288Z,1.30
2022-10-05T10:23:55.035Z,1.50
2022-10-05T10:27:10.161Z,1.90
2022-10-05T10:30:04.903Z,1.60
2022-10-05T10:33:17.460Z,1.65
2022-10-05T10:36:03.014Z,1.52
2022-10-05T10:38:54.414Z,2.30
2022-10-05T10:41:53.034Z,1.80
2022-10-05T10:44:58.902Z,1.90
2022-10-05T10:47:51.410Z,2.20
2022-10-05T10:51:01.541Z,2.37
2022-10-05T10:54:18.963Z,2.03
2022-10-05T10:56:59.449Z,2.75
2022-10-05T11:00:04.620Z,2.53
2022-10-05T11:03:04.100Z,2.17
2022-10-05T11:06:08.536Z,2.60
2022-10-05T11:08:56.610Z,2.28
2022-10-05T11:11:58.563Z,2.45
2022-10-05T11:15:01.784Z,2.22
2022-10-05T11:18:05.999Z,1.92
2022-10-05T11:21:04.355Z,2.88
2022-10-05T11:24:08.740Z,2.45
2022-10-05T11:26:56.789Z,2.10
2022-10-05T11:30:17.512Z,2.78
2022-10-05T11:33:42.883Z,2.33
2022-10-05T11:36:47.885Z,2.15
2022-10-05T11:39:33.064Z,2.13
2022-10-05T11:42:27.009Z,2.22
2022-10-05T11:45:22.999Z,1.90
2022-10-05T11:48:14.713Z,2.20
2022-10-05T11:51:02.536Z,2.15
2022-10-05T11:53:41.733Z,1.73
2022-10-05T11:56:24.987Z,1.90
2022-10-05T12:01:40.856Z,1.95
2022-10-05T12:04:20.953Z,1.52
2022-10-05T12:07:04.349Z,2.00
2022-10-05T12:10:17.445Z,1.88
2022-10-05T12:13:05.273Z,2.35
2022-10-05T12:15:45.655Z,1.92
2022-10-05T12:18:25.319Z,1.80
2022-10-05T12:21:03.183Z,1.77
2022-10-05T12:23:40.638Z,1.42
2022-10-05T12:26:17.374Z,1.70
2022-10-05T12:28:54.926Z,2.03
2022-10-05T12:31:36.760Z,2.35
2022-10-05T12:34:20.006Z,1.80
2022-10-05T12:37:04.122Z,1.88
2022-10-05T12:39:44.505Z,1.85
2022-10-05T12:42:29.645Z,1.90
2022-10-05T12:45:16.560Z,1.90
2022-10-05T12:48:05.314Z,2.22
2022-10-05T12:50:42.627Z,1.75
2022-10-05T12:53:29.735Z,2.33
2022-10-05T12:56:05.818Z,2.00
2022-10-05T12:58:50.258Z,1.65
2022-10-05T13:01:31.609Z,1.70
2022-10-05T13:04:18.981Z,1.60
2022-10-05T13:07:09.755Z,2.17
2022-10-05T13:09:54.386Z,1.70
2022-10-05T13:12:39.023Z,1.60
2022-10-05T13:15:20.994Z,1.70
2022-10-05T13:18:07.577Z,1.75
2022-10-05T13:20:46.928Z,1.55
2022-10-05T13:23:25.836Z,1.50
2022-10-05T13:26:04.889Z,1.60
2022-10-05T13:28:45.708Z,1.27
2022-10-05T13:31:25.645Z,1.70
2022-10-05T13:34:13.745Z,1.50
2022-10-05T13:36:58.152Z,1.48
2022-10-05T13:39:43.306Z,1.48
2022-10-05T13:42:18.856Z,1.60
2022-10-05T13:44:58.870Z,2.00
2022-10-05T13:47:39.886Z,1.33
2022-10-05T13:50:18.946Z,1.48
2022-10-05T13:53:00.440Z,1.50
2022-10-05T13:55:45.791Z,1.55
2022-10-05T13:58:29.176Z,1.42
2022-10-05T14:01:06.986Z,1.10
2022-10-05T14:03:41.357Z,1.52
2022-10-05T14:06:27.558Z,1.10
2022-10-05T14:09:00.311Z,1.33
2022-10-05T14:11:35.163Z,1.48
2022-10-05T14:14:15.892Z,2.85
2022-10-05T14:16:52.778Z,1.65
2022-10-05T14:19:31.987Z,1.30
2022-10-05T14:22:13.523Z,1.60
2022-10-05T14:24:52.547Z,1.30
2022-10-05T14:27:27.038Z,1.10
2022-10-05T14:30:02.104Z,1.42
2022-10-05T14:32:49.471Z,1.48
2022-10-05T14:35:25.577Z,1.70
2022-10-05T14:38:00.808Z,1.52
2022-10-05T14:40:35.707Z,1.73
2022-10-05T14:43:27.086Z,1.40
2022-10-05T14:46:02.628Z,1.83
2022-10-05T14:48:43.072Z,1.60
2022-10-05T14:51:31.742Z,1.30
2022-10-05T14:54:23.316Z,2.38
2022-10-05T14:57:06.325Z,1.83
2022-10-05T14:59:55.201Z,1.50
2022-10-05T15:02:48.301Z,1.83
2022-10-05T15:05:31.293Z,1.40
2022-10-05T15:08:20.984Z,1.67
2022-10-05T15:11:00.221Z,1.88
2022-10-05T15:13:37.289Z,1.98
2022-10-05T15:16:19.121Z,1.52
2022-10-05T15:19:00.055Z,1.60
2022-10-05T15:21:42.228Z,1.55
2022-10-05T15:24:20.301Z,1.48
2022-10-05T15:26:55.504Z,1.80
2022-10-05T15:29:47.319Z,1.63
2022-10-05T15:32:32.420Z,1.38
2022-10-05T15:35:27.037Z,1.58
2022-10-05T15:38:10.010Z,1.45
2022-10-05T15:40:51.526Z,1.65
2022-10-05T15:43:24.445Z,1.70
2022-10-05T15:46:03.824Z,1.60
2022-10-05T15:48:47.315Z,1.70
2022-10-05T15:51:31.730Z,1.40
2022-10-05T15:54:28.537Z,1.42
2022-10-05T15:57:09.818Z,1.90
2022-10-05T15:59:52.353Z,1.55
2022-10-05T16:02:30.875Z,1.63
2022-10-05T16:05:17.189Z,1.95
2022-10-05T16:08:08.162Z,1.77
2022-10-05T16:10:46.685Z,1.80
2022-10-05T16:13:29.550Z,1.77
2022-10-05T16:16:17.955Z,2.15
2022-10-05T16:19:04.122Z,1.85
2022-10-05T16:21:46.434Z,1.90
2022-10-05T16:24:40.902Z,1.67
2022-10-05T16:27:21.185Z,2.17
2022-10-05T16:30:01.825Z,1.90
2022-10-05T16:32:38.571Z,1.65
2022-10-05T16:35:25.691Z,1.90
2022-10-05T16:38:07.283Z,2.17
2022-10-05T16:40:45.608Z,1.67
2022-10-05T16:43:29.076Z,1.88
2022-10-05T16:46:12.047Z,1.85
2022-10-05T16:48:53.815Z,2.45
2022-10-05T16:51:32.476Z,1.52
2022-10-05T16:54:18.397Z,1.60
2022-10-05T16:56:55.247Z,2.70
2022-10-05T17:00:01.033Z,1.90
2022-10-05T17:02:52.180Z,2.40
2022-10-05T17:05:44.224Z,1.73
2022-10-05T17:08:36.779Z,2.42
2022-10-05T17:11:21.146Z,3.33
2022-10-05T17:14:11.635Z,2.28
2022-10-05T17:16:58.183Z,2.55
2022-10-05T17:20:00.436Z,2.60
2022-10-05T17:22:39.861Z,2.10
2022-10-05T17:25:18.225Z,2.03
2022-10-05T17:27:53.596Z,2.22
2022-10-05T17:30:51.398Z,2.10
2022-10-05T17:33:27.489Z,2.20
2022-10-05T17:36:19.456Z,2.17
2022-10-05T17:39:13.085Z,1.98
2022-10-05T17:41:46.887Z,2.13
2022-10-05T17:44:27.204Z,2.00
2022-10-05T17:47:01.416Z,2.03
2022-10-05T17:50:16.954Z,2.08
2022-10-05T17:53:38.574Z,1.90
2022-10-05T17:56:11.405Z,1.90
2022-10-05T17:59:02.835Z,3.30
2022-10-05T18:01:38.593Z,2.40
2022-10-05T18:04:30.386Z,2.63
2022-10-05T18:07:06.581Z,2.92
2022-10-05T18:09:56.629Z,2.08
2022-10-05T18:12:48.618Z,2.35
2022-10-05T18:15:45.050Z,1.83
2022-10-05T18:18:55.974Z,2.42
2022-10-05T18:21:33.162Z,2.70
2022-10-05T18:24:39.787Z,2.08
2022-10-05T18:27:58.369Z,2.45
2022-10-05T18:30:39.748Z,2.63
2022-10-05T18:33:54.129Z,2.53
2022-10-05T18:36:40.220Z,2.22
2022-10-05T18:39:27.623Z,2.38
2022-10-05T18:42:11.719Z,2.20
2022-10-05T18:44:49.710Z,1.88
2022-10-05T18:47:35.082Z,2.17
2022-10-05T18:50:20.929Z,1.60
2022-10-05T18:53:08.786Z,3.20
2022-10-05T18:55:46.627Z,1.48
2022-10-05T18:58:43.479Z,1.48
2022-10-05T19:01:32.369Z,1.70
2022-10-05T19:04:19.022Z,1.80
2022-10-05T19:06:59.948Z,1.58
2022-10-05T19:09:50.688Z,2.15
2022-10-05T19:12:36.993Z,1.85
2022-10-05T19:15:22.983Z,1.77
2022-10-05T19:18:30.769Z,2.05
2022-10-05T19:21:13.982Z,1.40
2022-10-05T19:26:53.637Z,1.48
2022-10-05T19:29:39.428Z,1.02
2022-10-05T19:32:19.894Z,1.35
2022-10-05T19:35:10.007Z,1.55
2022-10-05T19:37:54.660Z,1.40
2022-10-05T19:40:36.363Z,1.33
2022-10-05T19:43:26.463Z,1.80
2022-10-05T19:46:16.322Z,1.35
2022-10-05T19:49:00.903Z,2.15
2022-10-05T19:51:37.325Z,1.92
2022-10-05T19:54:23.134Z,1.58
2022-10-05T19:56:57.723Z,1.48
2022-10-05T19:59:31.787Z,1.15
2022-10-05T20:02:06.394Z,1.33
2022-10-05T20:04:43.073Z,1.80
2022-10-05T20:07:18.053Z,1.10
2022-10-05T20:09:59.814Z,0.93
2022-10-05T20:12:53.115Z,0.98
2022-10-05T20:15:46.630Z,1.20
2022-10-05T20:18:59.782Z,1.10
2022-10-05T20:21:49.926Z,1.00
2022-10-05T20:24:25.682Z,0.95
2022-10-05T20:27:16.212Z,1.00
2022-10-05T20:29:49.150Z,0.85
2022-10-05T20:32:21.901Z,0.95
2022-10-05T20:34:56.547Z,0.98
2022-10-05T20:37:29.422Z,0.90
2022-10-05T20:40:02.244Z,0.75
2022-10-05T20:42:37.370Z,1.75
2022-10-05T20:45:12.001Z,0.90
2022-10-05T20:47:46.955Z,1.42
2022-10-05T20:50:22.197Z,0.82
2022-10-05T20:52:55.450Z,0.98
2022-10-05T20:58:05.842Z,1.52
2022-10-05T21:00:56.374Z,1.10
2022-10-05T21:03:29.208Z,0.85
2022-10-05T21:06:03.214Z,1.23
2022-10-05T21:08:37.021Z,1.55
2022-10-05T21:11:09.897Z,1.95
2022-10-05T21:13:45.800Z,1.83
2022-10-05T21:16:19.933Z,1.85
2022-10-05T21:18:53.681Z,1.80
2022-10-05T21:21:28.262Z,1.77
2022-10-05T21:24:01.495Z,2.60
2022-10-05T21:26:35.151Z,2.30
2022-10-05T21:29:12.695Z,2.63
2022-10-05T21:31:45.993Z,2.08
2022-10-05T21:36:51.969Z,2.70
2022-10-05T21:39:25.690Z,2.47
2022-10-05T21:42:01.332Z,2.42
2022-10-05T21:44:35.616Z,2.10
2022-10-05T21:47:08.685Z,2.85
2022-10-05T21:49:42.792Z,2.25
2022-10-05T21:52:16.491Z,2.58
2022-10-05T21:54:49.834Z,2.22
2022-10-05T21:57:23.172Z,2.40
2022-10-05T21:59:58.409Z,2.58
2022-10-05T22:02:32.573Z,2.25
2022-10-05T22:05:05.811Z,2.53
2022-10-05T22:07:38.634Z,2.00
2022-10-05T22:10:11.807Z,2.35
2022-10-05T22:12:47.265Z,2.60
2022-10-05T22:15:21.994Z,2.20
2022-10-05T22:17:55.520Z,2.33
2022-10-05T22:20:28.827Z,2.08
2022-10-05T22:23:04.219Z,2.28
2022-10-05T22:25:37.328Z,2.25
2022-10-05T22:28:14.549Z,2.03
2022-10-05T22:30:49.301Z,2.30
2022-10-05T22:33:22.097Z,2.05
2022-10-05T22:35:55.778Z,2.47
2022-10-05T22:38:31.100Z,2.22
2022-10-05T22:41:04.747Z,2.40
2022-10-05T22:43:37.621Z,2.72
2022-10-05T22:46:13.299Z,2.60
2022-10-05T22:48:46.497Z,2.58
2022-10-05T22:51:19.765Z,2.75
2022-10-05T22:53:55.655Z,2.08
2022-10-05T22:56:31.162Z,2.10
2022-10-05T22:59:04.120Z,2.45
2022-10-05T23:01:38.440Z,2.95
2022-10-05T23:04:11.920Z,2.58
2022-10-05T23:06:45.424Z,2.10
2022-10-05T23:09:18.398Z,2.45
2022-10-05T23:14:29.337Z,3.40
2022-10-05T23:17:03.874Z,2.45
2022-10-05T23:19:36.824Z,2.25
2022-10-05T23:22:11.905Z,2.47
2022-10-05T23:24:59.928Z,2.00
2022-10-05T23:27:38.601Z,2.08
2022-10-05T23:30:13.657Z,2.28
2022-10-05T23:32:48.262Z,1.80
2022-10-05T23:35:21.087Z,2.28
2022-10-05T23:37:54.520Z,2.35
2022-10-05T23:40:27.741Z,2.45
2022-10-05T23:45:34.793Z,2.33
2022-10-05T23:50:42.214Z,2.15
2022-10-05T23:53:15.125Z,2.13
2022-10-05T23:55:51.065Z,1.90
2022-10-05T23:58:24.410Z,2.22
